Time;durP1;ratioP1;P1;durP2;ratioP2;P2;SDS_P1;SDS_P2;PMS_P1;PMS_P2;Temp;Humidity;BMP_temperature;BMP_pressure;BME280_temperature;BME280_humidity;BME280_pressure;Samples;Min_cycle;Max_cycle;Signal;HPM_P1;HPM_P2
2022/04/20 00:01:33;;;;;;;;;14.00;14.00;;;;;;;;2;279084339;279084339;-77
2022/04/20 00:09:47;;;;;;;;;17.00;17.00;;;;;;;;2;233063857;233063857;-78
2022/04/20 00:18:50;;;;;;;;;21.00;21.00;;;;;;;;2;279083870;279083870;-77
2022/04/20 00:27:04;;;;;;;;;21.00;17.50;;;;;;;;2;233650239;233650239;-77
2022/04/20 00:36:04;;;;;;;;;40.50;22.00;;;;;;;;2;279081814;279081814;-77
2022/04/20 00:44:23;;;;;;;;;23.50;18.00;;;;;;;;2;234039181;234039181;-77
2022/04/20 00:53:22;;;;;;;;;29.00;17.50;;;;;;;;2;277689700;277689700;-77
2022/04/20 01:01:36;;;;;;;;;27.00;27.00;;;;;;;;2;234067888;234067888;-77
2022/04/20 01:10:44;;;;;;;;;24.00;18.50;;;;;;;;2;278464069;278464069;-77
2022/04/20 01:19:00;;;;;;;;;28.00;22.50;;;;;;;;2;234068060;234068060;-76
2022/04/20 01:28:01;;;;;;;;;31.50;26.00;;;;;;;;2;279065988;279065988;-77
2022/04/20 01:36:16;;;;;;;;;32.00;20.50;;;;;;;;2;234069796;234069796;-76
2022/04/20 01:45:17;;;;;;;;;26.50;26.50;;;;;;;;2;279082285;279082285;-77
2022/04/20 01:53:35;;;;;;;;;42.00;26.00;;;;;;;;2;234066777;234066777;-77
2022/04/20 02:02:38;;;;;;;;;25.00;23.00;;;;;;;;2;279084418;279084418;-78
2022/04/20 02:10:56;;;;;;;;;29.00;28.50;;;;;;;;2;234069719;234069719;-77
2022/04/20 02:20:00;;;;;;;;;16.00;16.00;;;;;;;;2;279082156;279082156;-76
2022/04/20 02:28:18;;;;;;;;;36.50;31.50;;;;;;;;2;234069642;234069642;-77
2022/04/20 02:37:18;;;;;;;;;40.00;28.00;;;;;;;;2;279084566;279084566;-77
2022/04/20 02:45:37;;;;;;;;;36.50;25.50;;;;;;;;2;234069450;234069450;-77
2022/04/20 02:54:29;;;;;;;;;36.00;25.00;;;;;;;;2;279081730;279081730;-77
2022/04/20 03:02:45;;;;;;;;;35.00;32.50;;;;;;;;2;234071992;234071992;-77
2022/04/20 03:11:53;;;;;;;;;37.00;34.00;;;;;;;;2;279080849;279080849;-76
2022/04/20 03:20:11;;;;;;;;;37.50;29.00;;;;;;;;2;234071719;234071719;-77
2022/04/20 03:29:14;;;;;;;;;51.00;33.50;;;;;;;;2;279082417;279082417;-76
2022/04/20 03:37:32;;;;;;;;;45.00;32.00;;;;;;;;2;234070648;234070648;-76
2022/04/20 03:46:33;;;;;;;;;47.00;37.00;;;;;;;;2;279080290;279080290;-76
2022/04/20 03:54:48;;;;;;;;;43.00;38.00;;;;;;;;2;234070330;234070330;-76
2022/04/20 04:03:49;;;;;;;;;51.00;32.50;;;;;;;;2;279080281;279080281;-76
2022/04/20 04:12:06;;;;;;;;;49.50;36.50;;;;;;;;2;234069180;234069180;-76
2022/04/20 04:21:05;;;;;;;;;49.00;35.50;;;;;;;;2;279083698;279083698;-77
2022/04/20 04:29:21;;;;;;;;;46.00;39.00;;;;;;;;2;234067452;234067452;-77
2022/04/20 04:38:21;;;;;;;;;34.50;27.50;;;;;;;;2;279082564;279082564;-76
2022/04/20 07:08:18;;;;;;;;;52.50;39.50;;;;;;;;2;234174829;234174829;-80
2022/04/20 07:35:16;;;;;;;;;47.00;34.50;;;;;;;;2;279099723;279099723;-80
2022/04/20 07:53:18;;;;;;;;;41.50;29.50;;;;;;;;2;279103601;279103601;-80
2022/04/20 08:11:21;;;;;;;;;;;;;;;;;;;;;
2022/04/20 08:38:14;;;;;;;;;31.50;18.00;;;;;;;;2;234080832;234080832;-75
2022/04/20 17:38:12;;;;;;;;;5.50;5.50;;;;;;;;2;279297985;279297985;-78
2022/04/20 17:46:36;;;;;;;;;8.00;3.00;;;;;;;;2;234072793;234072793;-78
2022/04/20 17:55:39;;;;;;;;;8.50;8.50;;;;;;;;2;279085625;279085625;-78
2022/04/20 18:14:10;;;;;;;;;3.00;3.00;;;;;;;;2;279085406;279085406;-78
